CDV weather

Campo David Airport
Huimanguillo, Tabasco, Mexico

Public forecast

Using degrees Celsius for public forecast. Weather courtesy of forecast.io.

METAR (pilot weather report)

Closest report is Carlos Rovirosa Pérez International Airport, 40.1 nm (74.3 km) ENE. Retrieved 2019/06/18 01:43 UTC (27 minutes ago):

MMVA 180143Z 00000KT 7SM SCT017CB BKN070 28/22 A2982 RMK 8/360

TAF (pilot weather forecast)

Forecast is more than 6 hours old.

Closest forecast is Carlos Rovirosa Pérez International Airport, 40.1 nm (74.3 km) ENE. Retrieved 2019/06/17 18:45 UTC (7 hours ago):

TAF MMVA 171642Z 1718/1818 06010KT P6SM SCT015 BKN200 TEMPO 1800/1804 SCT015CB FM180600 09010KT P6SM SKC FM181200 12010KT 5SM HZ SCT015 BKN200